DLH24 RJTT-EDDF
Flight info
| Callsign | DLH24 |
|---|---|
| Flight time | N/A |
| Altitude | 33000 |
| Route | ROVER3C INUBO Y808 PUTER/N0477F340 A590 POXED/N0478F350 A590 POWAL DCT HEDMI R338 MARCC/N0486F370 DCT JUJXI DCT 71N160W DCT AGMIF DCT 79N120W 80N100W 80N080W/N0487F390 DCT BUDUM/M083F390 DCT 80N060W 78N040W 76N030W 73N020W 68N010W DCT RIXUN/N0485F410 DCT MOCHA DCT FORTY DCT ODMIX DCT CUTEL DCT VENAS/N0473F400 DCT TOPPA/N0477F410 DCT AMGOD DCT PETIK DCT SOGPO DCT DIXAT DIXAT1A |
| Aircraft | A388/J-SADE2E3FGHIJ3J4J5M1RWXY/LB1D1 |
Departure
| Time | N/A |
|---|---|
| Airport | Tokyo Haneda International Airport (RJTT) |
Arrival
| Time | 2026-04-18 11:09 |
|---|---|
| Airport | Frankfurt Main Airport (EDDF) |
| Time | Latitude | Longitude | Altitude | Speed | Heading |
|---|---|---|---|---|---|
| 2026-04-18 07:19 | 73.81049 | -22.21775 | 37809 ft | 477 kts | 143° |
| 2026-04-18 07:19 | 73.75871 | -22.06763 | 38285 ft | 480 kts | 143° |
| 2026-04-18 07:20 | 73.73272 | -21.99273 | 38694 ft | 479 kts | 143° |
| 2026-04-18 07:20 | 73.70677 | -21.91821 | 39063 ft | 479 kts | 143° |
| 2026-04-18 07:20 | 73.68080 | -21.84398 | 39405 ft | 479 kts | 143° |
| 2026-04-18 07:20 | 73.65583 | -21.77287 | 39701 ft | 480 kts | 143° |
| 2026-04-18 07:21 | 73.60348 | -21.62471 | 39806 ft | 476 kts | 143° |
| 2026-04-18 07:21 | 73.55168 | -21.47931 | 39799 ft | 476 kts | 143° |
| 2026-04-18 07:22 | 73.49995 | -21.33531 | 39796 ft | 477 kts | 143° |
| 2026-04-18 07:22 | 73.44778 | -21.19120 | 39790 ft | 477 kts | 144° |
| 2026-04-18 07:23 | 73.39548 | -21.04785 | 39788 ft | 477 kts | 144° |
| 2026-04-18 07:23 | 73.34314 | -20.90557 | 39796 ft | 477 kts | 144° |
| 2026-04-18 07:24 | 73.29071 | -20.76418 | 39797 ft | 477 kts | 144° |
| 2026-04-18 07:24 | 73.23812 | -20.62345 | 39787 ft | 477 kts | 144° |
| 2026-04-18 07:25 | 73.18547 | -20.48370 | 39784 ft | 477 kts | 144° |
| 2026-04-18 07:25 | 73.13276 | -20.34486 | 39781 ft | 476 kts | 144° |
| 2026-04-18 07:26 | 73.08042 | -20.20773 | 39777 ft | 476 kts | 144° |
| 2026-04-18 07:26 | 73.02758 | -20.07010 | 39768 ft | 476 kts | 145° |
| 2026-04-18 07:27 | 72.97541 | -19.93040 | 39764 ft | 476 kts | 144° |
| 2026-04-18 07:27 | 72.92293 | -19.79241 | 39761 ft | 476 kts | 144° |
| 2026-04-18 07:28 | 72.87076 | -19.65343 | 39761 ft | 477 kts | 144° |
| 2026-04-18 07:28 | 72.81866 | -19.51428 | 39758 ft | 477 kts | 144° |
| 2026-04-18 07:29 | 72.76683 | -19.37672 | 39760 ft | 477 kts | 144° |
| 2026-04-18 07:29 | 72.71453 | -19.23914 | 39755 ft | 477 kts | 144° |
| 2026-04-18 07:30 | 72.66210 | -19.10265 | 39758 ft | 477 kts | 144° |
| 2026-04-18 07:30 | 72.60951 | -18.96694 | 39754 ft | 477 kts | 144° |
| 2026-04-18 07:31 | 72.55694 | -18.83233 | 39753 ft | 476 kts | 144° |
| 2026-04-18 07:31 | 72.50423 | -18.69835 | 39752 ft | 476 kts | 145° |
| 2026-04-18 07:32 | 72.45148 | -18.56530 | 39750 ft | 476 kts | 145° |
| 2026-04-18 07:32 | 72.39900 | -18.43390 | 39748 ft | 476 kts | 145° |
| 2026-04-18 07:33 | 72.34615 | -18.30255 | 39750 ft | 475 kts | 145° |
| 2026-04-18 07:33 | 72.29320 | -18.17194 | 39748 ft | 475 kts | 145° |
| 2026-04-18 07:34 | 72.24029 | -18.04237 | 39746 ft | 475 kts | 145° |
| 2026-04-18 07:34 | 72.18724 | -17.91344 | 39751 ft | 475 kts | 146° |
| 2026-04-18 07:35 | 72.13410 | -17.78523 | 39752 ft | 475 kts | 146° |
| 2026-04-18 07:35 | 72.08094 | -17.65789 | 39756 ft | 474 kts | 146° |
| 2026-04-18 07:36 | 72.02761 | -17.53109 | 39761 ft | 474 kts | 146° |
| 2026-04-18 07:36 | 71.97463 | -17.40602 | 39762 ft | 474 kts | 146° |
| 2026-04-18 07:37 | 71.92124 | -17.28091 | 39766 ft | 474 kts | 146° |
| 2026-04-18 07:37 | 71.86783 | -17.15664 | 39766 ft | 474 kts | 146° |
| 2026-04-18 07:38 | 71.81430 | -17.03297 | 39775 ft | 474 kts | 146° |
| 2026-04-18 07:38 | 71.76072 | -16.91007 | 39773 ft | 474 kts | 147° |
| 2026-04-18 07:39 | 71.70732 | -16.78847 | 39779 ft | 474 kts | 147° |
| 2026-04-18 07:39 | 71.65363 | -16.66706 | 39785 ft | 473 kts | 147° |
| 2026-04-18 07:40 | 71.59983 | -16.54626 | 39786 ft | 473 kts | 147° |
| 2026-04-18 07:40 | 71.54609 | -16.42644 | 39788 ft | 473 kts | 147° |
| 2026-04-18 07:41 | 71.49219 | -16.30711 | 39790 ft | 473 kts | 147° |
| 2026-04-18 07:41 | 71.43819 | -16.18838 | 39790 ft | 473 kts | 147° |
| 2026-04-18 07:42 | 71.38415 | -16.07040 | 39794 ft | 473 kts | 147° |
| 2026-04-18 07:42 | 71.33043 | -15.95395 | 39799 ft | 473 kts | 147° |
| 2026-04-18 07:43 | 71.27630 | -15.83737 | 39801 ft | 473 kts | 147° |
| 2026-04-18 07:43 | 71.22199 | -15.72125 | 39808 ft | 473 kts | 147° |
| 2026-04-18 07:44 | 71.16765 | -15.60584 | 39812 ft | 474 kts | 148° |
| 2026-04-18 07:44 | 71.11318 | -15.49095 | 39816 ft | 474 kts | 148° |
| 2026-04-18 07:45 | 71.05857 | -15.37656 | 39822 ft | 474 kts | 148° |
| 2026-04-18 07:45 | 71.00438 | -15.26381 | 39830 ft | 474 kts | 148° |
| 2026-04-18 07:46 | 70.94972 | -15.15085 | 39825 ft | 474 kts | 148° |
| 2026-04-18 07:46 | 70.89486 | -15.03826 | 39834 ft | 474 kts | 148° |
| 2026-04-18 07:47 | 70.84002 | -14.92644 | 39834 ft | 474 kts | 148° |
| 2026-04-18 07:47 | 70.78509 | -14.81522 | 39830 ft | 474 kts | 148° |
| 2026-04-18 07:48 | 70.73012 | -14.70463 | 39838 ft | 474 kts | 148° |
| 2026-04-18 07:48 | 70.67549 | -14.59549 | 39832 ft | 474 kts | 148° |
| 2026-04-18 07:49 | 70.62035 | -14.48604 | 39833 ft | 474 kts | 148° |
| 2026-04-18 07:49 | 70.56524 | -14.37739 | 39845 ft | 474 kts | 148° |
| 2026-04-18 07:50 | 70.50995 | -14.26908 | 39842 ft | 474 kts | 148° |
| 2026-04-18 07:50 | 70.45470 | -14.16158 | 39843 ft | 474 kts | 149° |
| 2026-04-18 07:51 | 70.39936 | -14.05462 | 39842 ft | 474 kts | 149° |
| 2026-04-18 07:51 | 70.34400 | -13.94829 | 39843 ft | 473 kts | 149° |
| 2026-04-18 07:52 | 70.28862 | -13.84264 | 39841 ft | 473 kts | 149° |
| 2026-04-18 07:52 | 70.23344 | -13.73805 | 39838 ft | 473 kts | 149° |
| 2026-04-18 07:53 | 70.17791 | -13.63347 | 39839 ft | 473 kts | 149° |
| 2026-04-18 07:53 | 70.12232 | -13.52945 | 39839 ft | 473 kts | 149° |
| 2026-04-18 07:54 | 70.06666 | -13.42597 | 39840 ft | 473 kts | 149° |
| 2026-04-18 07:54 | 70.01091 | -13.32299 | 39839 ft | 473 kts | 149° |
| 2026-04-18 07:55 | 69.95517 | -13.22069 | 39834 ft | 473 kts | 149° |
| 2026-04-18 07:55 | 69.89933 | -13.11885 | 39835 ft | 474 kts | 149° |
| 2026-04-18 07:56 | 69.84374 | -13.01812 | 39832 ft | 474 kts | 149° |
| 2026-04-18 07:56 | 69.78777 | -12.91733 | 39833 ft | 474 kts | 149° |
| 2026-04-18 07:57 | 69.73173 | -12.81705 | 39833 ft | 474 kts | 149° |
| 2026-04-18 07:57 | 69.67556 | -12.71717 | 39824 ft | 474 kts | 150° |
| 2026-04-18 07:58 | 69.59131 | -12.56855 | 39822 ft | 474 kts | 150° |
| 2026-04-18 07:59 | 69.53502 | -12.47001 | 39821 ft | 474 kts | 150° |
| 2026-04-18 07:59 | 69.47870 | -12.37205 | 39815 ft | 474 kts | 150° |
| 2026-04-18 08:00 | 69.43182 | -12.29097 | 39813 ft | 474 kts | 150° |
| 2026-04-18 08:00 | 69.37539 | -12.19391 | 39813 ft | 474 kts | 150° |
| 2026-04-18 08:01 | 69.31892 | -12.09740 | 39810 ft | 474 kts | 150° |
| 2026-04-18 08:01 | 69.26224 | -12.00112 | 39803 ft | 474 kts | 150° |
| 2026-04-18 08:02 | 69.20564 | -11.90556 | 39800 ft | 474 kts | 150° |
| 2026-04-18 08:02 | 69.14892 | -11.81040 | 39794 ft | 475 kts | 150° |
| 2026-04-18 08:03 | 69.09204 | -11.71554 | 39782 ft | 475 kts | 150° |
| 2026-04-18 08:03 | 69.03561 | -11.62200 | 39797 ft | 475 kts | 150° |
| 2026-04-18 08:04 | 68.97867 | -11.52821 | 39796 ft | 474 kts | 150° |
| 2026-04-18 08:04 | 68.92181 | -11.43509 | 39783 ft | 474 kts | 150° |
| 2026-04-18 08:05 | 68.86485 | -11.34238 | 39785 ft | 475 kts | 151° |
| 2026-04-18 08:05 | 68.80768 | -11.24989 | 39781 ft | 475 kts | 151° |
| 2026-04-18 08:06 | 68.75061 | -11.15811 | 39774 ft | 475 kts | 151° |
| 2026-04-18 08:06 | 68.69370 | -11.06714 | 39772 ft | 476 kts | 151° |
| 2026-04-18 08:07 | 68.63609 | -10.97558 | 39772 ft | 476 kts | 151° |
| 2026-04-18 08:07 | 68.57905 | -10.88549 | 39770 ft | 476 kts | 151° |
| 2026-04-18 08:08 | 68.52158 | -10.79524 | 39769 ft | 476 kts | 151° |
| 2026-04-18 08:08 | 68.46398 | -10.70534 | 39767 ft | 476 kts | 151° |
| 2026-04-18 08:09 | 68.40640 | -10.61599 | 39758 ft | 477 kts | 151° |
| 2026-04-18 08:09 | 68.34877 | -10.52709 | 39762 ft | 477 kts | 151° |
| 2026-04-18 08:10 | 68.29099 | -10.43848 | 39762 ft | 477 kts | 152° |
| 2026-04-18 08:10 | 68.23360 | -10.35097 | 39753 ft | 476 kts | 152° |
| 2026-04-18 08:11 | 68.17548 | -10.26274 | 39750 ft | 476 kts | 152° |
| 2026-04-18 08:11 | 68.11814 | -10.17607 | 39747 ft | 476 kts | 152° |
| 2026-04-18 08:12 | 68.06034 | -10.08919 | 39746 ft | 476 kts | 152° |
| 2026-04-18 08:12 | 68.00246 | -10.00330 | 39744 ft | 476 kts | 152° |
| 2026-04-18 08:13 | 67.94341 | -9.92263 | 39746 ft | 475 kts | 155° |
| 2026-04-18 08:13 | 67.88376 | -9.84669 | 39745 ft | 475 kts | 155° |
| 2026-04-18 08:14 | 67.82436 | -9.76924 | 39742 ft | 476 kts | 154° |
| 2026-04-18 08:14 | 67.76491 | -9.69144 | 39741 ft | 476 kts | 154° |
| 2026-04-18 08:15 | 67.70554 | -9.61414 | 39739 ft | 476 kts | 154° |
| 2026-04-18 08:15 | 67.64641 | -9.53762 | 39735 ft | 476 kts | 154° |
| 2026-04-18 08:16 | 67.58678 | -9.46097 | 39738 ft | 477 kts | 155° |
| 2026-04-18 08:16 | 67.52717 | -9.38490 | 39737 ft | 477 kts | 155° |
| 2026-04-18 08:17 | 67.46744 | -9.30915 | 39738 ft | 477 kts | 155° |
| 2026-04-18 08:17 | 67.40768 | -9.23378 | 39734 ft | 477 kts | 155° |
| 2026-04-18 08:18 | 67.34818 | -9.15916 | 39735 ft | 477 kts | 155° |
| 2026-04-18 08:18 | 67.28791 | -9.08399 | 39734 ft | 478 kts | 155° |
| 2026-04-18 08:19 | 67.22832 | -9.01008 | 39735 ft | 478 kts | 155° |
| 2026-04-18 08:19 | 67.16830 | -8.93606 | 39733 ft | 478 kts | 155° |
| 2026-04-18 08:20 | 67.10815 | -8.86228 | 39734 ft | 478 kts | 155° |
| 2026-04-18 08:20 | 67.04803 | -8.78895 | 39728 ft | 478 kts | 155° |
| 2026-04-18 08:21 | 66.98782 | -8.71590 | 39730 ft | 478 kts | 155° |
| 2026-04-18 08:21 | 66.92760 | -8.64325 | 39726 ft | 478 kts | 155° |
| 2026-04-18 08:22 | 66.86777 | -8.57147 | 39729 ft | 478 kts | 155° |
| 2026-04-18 08:22 | 66.80754 | -8.49959 | 39722 ft | 478 kts | 155° |
| 2026-04-18 08:23 | 66.74721 | -8.42799 | 39721 ft | 479 kts | 155° |
| 2026-04-18 08:23 | 66.68680 | -8.35668 | 39725 ft | 479 kts | 155° |
| 2026-04-18 08:24 | 66.62638 | -8.28575 | 39724 ft | 479 kts | 155° |
| 2026-04-18 08:24 | 66.56580 | -8.21502 | 39728 ft | 479 kts | 155° |
| 2026-04-18 08:25 | 66.50522 | -8.14465 | 39724 ft | 480 kts | 155° |
| 2026-04-18 08:25 | 66.44479 | -8.07484 | 39733 ft | 481 kts | 155° |
| 2026-04-18 08:26 | 66.38391 | -8.00489 | 39731 ft | 481 kts | 155° |
| 2026-04-18 08:26 | 66.32258 | -7.93480 | 39733 ft | 482 kts | 155° |
| 2026-04-18 08:27 | 66.26170 | -7.86560 | 39728 ft | 481 kts | 155° |
| 2026-04-18 08:27 | 66.20119 | -7.79719 | 39722 ft | 480 kts | 156° |
| 2026-04-18 08:28 | 66.14043 | -7.72886 | 39718 ft | 480 kts | 156° |
| 2026-04-18 08:28 | 66.07962 | -7.66082 | 39717 ft | 480 kts | 156° |
| 2026-04-18 08:29 | 66.01863 | -7.59295 | 39713 ft | 480 kts | 156° |
| 2026-04-18 08:29 | 65.95761 | -7.52540 | 39715 ft | 480 kts | 156° |
| 2026-04-18 08:30 | 65.89654 | -7.45815 | 39720 ft | 482 kts | 156° |
| 2026-04-18 08:30 | 65.83535 | -7.39112 | 39725 ft | 482 kts | 156° |
| 2026-04-18 08:31 | 65.77449 | -7.32480 | 39724 ft | 482 kts | 156° |
| 2026-04-18 08:31 | 65.71310 | -7.25825 | 39728 ft | 483 kts | 156° |
| 2026-04-18 08:32 | 65.65172 | -7.19206 | 39730 ft | 483 kts | 156° |
| 2026-04-18 08:32 | 65.59030 | -7.12617 | 39728 ft | 483 kts | 156° |
| 2026-04-18 08:33 | 65.52912 | -7.06088 | 39727 ft | 483 kts | 156° |
| 2026-04-18 08:33 | 65.46736 | -6.99529 | 39727 ft | 483 kts | 156° |
| 2026-04-18 08:34 | 65.40575 | -6.93022 | 39726 ft | 483 kts | 156° |
| 2026-04-18 08:34 | 65.34450 | -6.86585 | 39728 ft | 483 kts | 156° |
| 2026-04-18 08:35 | 65.28293 | -6.80149 | 39730 ft | 483 kts | 156° |
| 2026-04-18 08:35 | 65.22150 | -6.73759 | 39725 ft | 483 kts | 156° |
| 2026-04-18 08:36 | 65.16009 | -6.67403 | 39727 ft | 483 kts | 157° |
| 2026-04-18 08:36 | 65.09851 | -6.61063 | 39728 ft | 483 kts | 157° |
| 2026-04-18 08:37 | 65.03685 | -6.54746 | 39727 ft | 483 kts | 157° |
| 2026-04-18 08:37 | 64.97513 | -6.48454 | 39727 ft | 483 kts | 157° |
| 2026-04-18 08:38 | 64.91329 | -6.42183 | 39722 ft | 483 kts | 157° |
| 2026-04-18 08:38 | 64.85158 | -6.35956 | 39723 ft | 483 kts | 157° |
| 2026-04-18 08:39 | 64.79019 | -6.29792 | 39723 ft | 482 kts | 157° |
| 2026-04-18 08:39 | 64.72841 | -6.23619 | 39722 ft | 483 kts | 157° |
| 2026-04-18 08:40 | 64.66658 | -6.17473 | 39723 ft | 483 kts | 157° |
| 2026-04-18 08:40 | 64.60478 | -6.11360 | 39720 ft | 483 kts | 158° |
| 2026-04-18 08:41 | 64.54286 | -6.05265 | 39724 ft | 483 kts | 158° |
| 2026-04-18 08:41 | 64.48095 | -5.99202 | 39723 ft | 483 kts | 158° |
| 2026-04-18 08:42 | 64.41904 | -5.93168 | 39723 ft | 483 kts | 158° |
| 2026-04-18 08:42 | 64.35696 | -5.87147 | 39721 ft | 483 kts | 158° |
| 2026-04-18 08:43 | 64.29495 | -5.81162 | 39722 ft | 483 kts | 158° |
| 2026-04-18 08:43 | 64.23283 | -5.75197 | 39720 ft | 483 kts | 158° |
| 2026-04-18 08:44 | 64.17070 | -5.69259 | 39720 ft | 483 kts | 158° |
| 2026-04-18 08:44 | 64.10860 | -5.63352 | 39718 ft | 483 kts | 158° |
| 2026-04-18 08:45 | 64.04678 | -5.57502 | 39713 ft | 483 kts | 158° |
| 2026-04-18 08:45 | 63.98459 | -5.51644 | 39714 ft | 483 kts | 158° |
| 2026-04-18 08:46 | 63.92245 | -5.45818 | 39710 ft | 483 kts | 158° |
| 2026-04-18 08:46 | 63.87076 | -5.40995 | 39707 ft | 483 kts | 158° |
| 2026-04-18 08:47 | 63.80860 | -5.35219 | 39711 ft | 483 kts | 158° |
| 2026-04-18 08:47 | 63.73630 | -5.28536 | 39709 ft | 483 kts | 158° |
| 2026-04-18 08:48 | 63.67407 | -5.22814 | 39707 ft | 483 kts | 159° |
| 2026-04-18 08:48 | 63.62192 | -5.18038 | 39700 ft | 483 kts | 159° |
| 2026-04-18 08:49 | 63.55970 | -5.12366 | 39702 ft | 482 kts | 159° |
| 2026-04-18 08:49 | 63.49786 | -5.06755 | 39699 ft | 482 kts | 159° |
| 2026-04-18 08:50 | 63.43571 | -5.01142 | 39698 ft | 482 kts | 159° |
| 2026-04-18 08:50 | 63.37340 | -4.95541 | 39693 ft | 482 kts | 159° |
| 2026-04-18 08:51 | 63.31118 | -4.89974 | 39694 ft | 482 kts | 159° |
| 2026-04-18 08:51 | 63.24915 | -4.84450 | 39688 ft | 482 kts | 159° |
| 2026-04-18 08:52 | 63.18674 | -4.78919 | 39687 ft | 482 kts | 159° |
| 2026-04-18 08:52 | 63.12555 | -4.73520 | 39685 ft | 482 kts | 159° |
| 2026-04-18 08:53 | 63.06311 | -4.68037 | 39693 ft | 484 kts | 159° |
| 2026-04-18 08:53 | 63.00105 | -4.62611 | 39691 ft | 482 kts | 159° |
| 2026-04-18 08:54 | 62.93874 | -4.57188 | 39682 ft | 482 kts | 159° |
| 2026-04-18 08:54 | 62.87641 | -4.51790 | 39676 ft | 481 kts | 159° |
| 2026-04-18 08:55 | 62.81410 | -4.46417 | 39671 ft | 480 kts | 160° |
| 2026-04-18 08:55 | 62.75193 | -4.41081 | 39668 ft | 480 kts | 160° |
| 2026-04-18 08:56 | 62.68975 | -4.35767 | 39666 ft | 480 kts | 160° |
| 2026-04-18 08:56 | 62.62802 | -4.30517 | 39665 ft | 480 kts | 160° |
| 2026-04-18 08:57 | 62.53459 | -4.22614 | 39676 ft | 480 kts | 160° |
| 2026-04-18 08:57 | 62.47224 | -4.17369 | 39678 ft | 481 kts | 160° |
| 2026-04-18 08:58 | 62.40970 | -4.12133 | 39675 ft | 481 kts | 160° |
| 2026-04-18 08:58 | 62.34727 | -4.06929 | 39680 ft | 481 kts | 160° |
| 2026-04-18 08:59 | 62.28476 | -4.01742 | 39683 ft | 481 kts | 160° |
| 2026-04-18 08:59 | 62.22228 | -3.96579 | 39676 ft | 481 kts | 160° |
| 2026-04-18 09:00 | 62.15971 | -3.91433 | 39678 ft | 481 kts | 160° |
| 2026-04-18 09:00 | 62.09748 | -3.86337 | 39677 ft | 481 kts | 160° |
| 2026-04-18 09:01 | 62.03487 | -3.81233 | 39673 ft | 481 kts | 160° |
| 2026-04-18 09:01 | 61.97239 | -3.76161 | 39673 ft | 481 kts | 160° |
| 2026-04-18 09:02 | 61.90983 | -3.71106 | 39678 ft | 480 kts | 161° |
| 2026-04-18 09:02 | 61.84727 | -3.66074 | 39677 ft | 480 kts | 161° |
| 2026-04-18 09:03 | 61.78514 | -3.61096 | 39684 ft | 480 kts | 161° |
| 2026-04-18 09:03 | 61.72262 | -3.56109 | 39683 ft | 480 kts | 161° |
| 2026-04-18 09:04 | 61.66007 | -3.51146 | 39682 ft | 480 kts | 161° |
| 2026-04-18 09:04 | 61.59747 | -3.46194 | 39688 ft | 480 kts | 161° |
| 2026-04-18 09:05 | 61.53489 | -3.41266 | 39691 ft | 480 kts | 161° |
| 2026-04-18 09:05 | 61.47226 | -3.36355 | 39695 ft | 480 kts | 161° |
| 2026-04-18 09:06 | 61.41004 | -3.31497 | 39706 ft | 480 kts | 161° |
| 2026-04-18 09:06 | 61.34745 | -3.26634 | 39708 ft | 480 kts | 161° |
| 2026-04-18 09:07 | 61.28478 | -3.21782 | 39694 ft | 480 kts | 161° |
| 2026-04-18 09:07 | 61.22216 | -3.16947 | 39701 ft | 480 kts | 161° |
| 2026-04-18 09:08 | 61.15950 | -3.12130 | 39706 ft | 480 kts | 161° |
| 2026-04-18 09:08 | 61.09686 | -3.07333 | 39710 ft | 480 kts | 161° |
| 2026-04-18 09:09 | 61.03455 | -3.02579 | 39718 ft | 480 kts | 161° |
| 2026-04-18 09:09 | 60.97325 | -2.97146 | 39717 ft | 482 kts | 153° |
| 2026-04-18 09:10 | 60.91524 | -2.90169 | 39718 ft | 482 kts | 152° |
| 2026-04-18 09:10 | 60.85727 | -2.83207 | 39727 ft | 482 kts | 152° |
| 2026-04-18 09:11 | 60.79907 | -2.76364 | 39735 ft | 482 kts | 152° |
| 2026-04-18 09:11 | 60.74071 | -2.69561 | 39738 ft | 482 kts | 153° |
| 2026-04-18 09:12 | 60.68231 | -2.62788 | 39747 ft | 482 kts | 152° |
| 2026-04-18 09:12 | 60.62389 | -2.56040 | 39749 ft | 482 kts | 153° |
| 2026-04-18 09:13 | 60.56547 | -2.49318 | 39755 ft | 482 kts | 153° |
| 2026-04-18 09:13 | 60.50701 | -2.42620 | 39756 ft | 482 kts | 153° |
| 2026-04-18 09:14 | 60.44888 | -2.35987 | 39767 ft | 482 kts | 153° |
| 2026-04-18 09:14 | 60.39030 | -2.29330 | 39767 ft | 483 kts | 153° |
| 2026-04-18 09:15 | 60.33158 | -2.22685 | 39773 ft | 483 kts | 153° |
| 2026-04-18 09:15 | 60.27284 | -2.16065 | 39784 ft | 484 kts | 153° |
| 2026-04-18 09:16 | 60.21400 | -2.09462 | 39786 ft | 484 kts | 153° |
| 2026-04-18 09:16 | 60.15516 | -2.02886 | 39795 ft | 484 kts | 153° |
| 2026-04-18 09:17 | 60.09647 | -1.96354 | 39798 ft | 485 kts | 153° |
| 2026-04-18 09:17 | 60.03747 | -1.89814 | 39808 ft | 485 kts | 153° |
| 2026-04-18 09:18 | 59.97848 | -1.83302 | 39816 ft | 485 kts | 153° |
| 2026-04-18 09:18 | 59.91936 | -1.76802 | 39820 ft | 485 kts | 153° |
| 2026-04-18 09:19 | 59.86025 | -1.70330 | 39825 ft | 485 kts | 153° |
| 2026-04-18 09:19 | 59.80107 | -1.63879 | 39828 ft | 485 kts | 153° |
| 2026-04-18 09:20 | 59.74193 | -1.57453 | 39831 ft | 485 kts | 153° |
| 2026-04-18 09:20 | 59.68272 | -1.51049 | 39834 ft | 484 kts | 153° |
| 2026-04-18 09:21 | 59.62354 | -1.44677 | 39838 ft | 484 kts | 153° |
| 2026-04-18 09:21 | 59.56427 | -1.38321 | 39840 ft | 484 kts | 153° |
| 2026-04-18 09:22 | 59.50677 | -1.31346 | 39853 ft | 486 kts | 148° |
| 2026-04-18 09:22 | 59.45065 | -1.24022 | 39857 ft | 486 kts | 148° |
| 2026-04-18 09:23 | 59.39411 | -1.16709 | 39864 ft | 486 kts | 149° |
| 2026-04-18 09:23 | 59.33778 | -1.09489 | 39872 ft | 487 kts | 149° |
| 2026-04-18 09:24 | 59.28069 | -1.02209 | 39880 ft | 487 kts | 149° |
| 2026-04-18 09:24 | 59.22382 | -0.94983 | 39881 ft | 487 kts | 149° |
| 2026-04-18 09:25 | 59.16737 | -0.87840 | 39885 ft | 487 kts | 149° |
| 2026-04-18 09:25 | 59.11043 | -0.80663 | 39887 ft | 487 kts | 149° |
| 2026-04-18 09:26 | 59.05331 | -0.73495 | 39895 ft | 487 kts | 149° |
| 2026-04-18 09:26 | 58.99633 | -0.66374 | 39911 ft | 487 kts | 149° |
| 2026-04-18 09:27 | 58.93933 | -0.59279 | 39914 ft | 487 kts | 149° |
| 2026-04-18 09:27 | 58.88261 | -0.52245 | 39915 ft | 487 kts | 149° |
| 2026-04-18 09:28 | 58.82554 | -0.45194 | 39923 ft | 487 kts | 149° |
| 2026-04-18 09:28 | 58.76823 | -0.38191 | 39930 ft | 487 kts | 149° |
| 2026-04-18 09:29 | 58.71119 | -0.31167 | 39924 ft | 487 kts | 149° |
| 2026-04-18 09:29 | 58.65438 | -0.24217 | 39929 ft | 486 kts | 149° |
| 2026-04-18 09:30 | 58.59726 | -0.17269 | 39937 ft | 486 kts | 150° |
| 2026-04-18 09:30 | 58.54003 | -0.10340 | 39939 ft | 486 kts | 150° |
| 2026-04-18 09:31 | 58.48274 | -0.03429 | 39946 ft | 486 kts | 150° |
| 2026-04-18 09:31 | 58.42536 | 0.03467 | 39952 ft | 486 kts | 150° |
| 2026-04-18 09:32 | 58.36809 | 0.10323 | 39952 ft | 486 kts | 150° |
| 2026-04-18 09:32 | 58.31073 | 0.17161 | 39958 ft | 486 kts | 150° |
| 2026-04-18 09:33 | 58.25370 | 0.23936 | 39969 ft | 486 kts | 150° |
| 2026-04-18 09:33 | 58.19626 | 0.30732 | 39969 ft | 486 kts | 150° |
| 2026-04-18 09:34 | 58.13880 | 0.37505 | 39975 ft | 486 kts | 150° |
| 2026-04-18 09:34 | 58.08138 | 0.44247 | 39982 ft | 486 kts | 150° |
| 2026-04-18 09:35 | 58.03362 | 0.49835 | 39992 ft | 486 kts | 150° |
| 2026-04-18 09:35 | 57.97614 | 0.56540 | 39994 ft | 485 kts | 150° |
| 2026-04-18 09:36 | 57.91716 | 0.62682 | 39998 ft | 483 kts | 156° |
| 2026-04-18 09:36 | 57.85659 | 0.68136 | 39998 ft | 482 kts | 156° |
| 2026-04-18 09:37 | 57.79616 | 0.73608 | 40002 ft | 482 kts | 156° |
| 2026-04-18 09:37 | 57.73576 | 0.79079 | 40002 ft | 482 kts | 156° |
| 2026-04-18 09:38 | 57.67543 | 0.84526 | 40007 ft | 482 kts | 156° |
| 2026-04-18 09:38 | 57.61504 | 0.89958 | 40010 ft | 482 kts | 156° |
| 2026-04-18 09:39 | 57.55456 | 0.95378 | 40015 ft | 482 kts | 156° |
| 2026-04-18 09:39 | 57.49416 | 1.00770 | 40017 ft | 482 kts | 156° |
| 2026-04-18 09:40 | 57.43404 | 1.06117 | 40025 ft | 482 kts | 156° |
| 2026-04-18 09:40 | 57.37349 | 1.11483 | 40028 ft | 482 kts | 156° |
| 2026-04-18 09:41 | 57.31287 | 1.16837 | 40031 ft | 483 kts | 156° |
| 2026-04-18 09:41 | 57.25222 | 1.22172 | 40041 ft | 483 kts | 156° |
| 2026-04-18 09:42 | 57.19150 | 1.27494 | 40043 ft | 483 kts | 156° |
| 2026-04-18 09:42 | 57.13067 | 1.32807 | 40043 ft | 483 kts | 156° |
| 2026-04-18 09:43 | 57.06990 | 1.38095 | 40046 ft | 483 kts | 157° |
| 2026-04-18 09:43 | 57.00898 | 1.43377 | 40047 ft | 484 kts | 157° |
| 2026-04-18 09:44 | 56.94814 | 1.48634 | 40051 ft | 484 kts | 157° |
| 2026-04-18 09:44 | 56.88758 | 1.53842 | 40054 ft | 484 kts | 157° |
| 2026-04-18 09:45 | 56.82660 | 1.59072 | 40055 ft | 484 kts | 157° |
| 2026-04-18 09:45 | 56.76567 | 1.64279 | 40058 ft | 484 kts | 157° |
| 2026-04-18 09:46 | 56.70466 | 1.69474 | 40062 ft | 484 kts | 157° |
| 2026-04-18 09:46 | 56.64347 | 1.74664 | 40064 ft | 484 kts | 158° |
| 2026-04-18 09:47 | 56.58215 | 1.79848 | 40388 ft | 486 kts | 158° |
| 2026-04-18 09:47 | 56.55196 | 1.82392 | 40629 ft | 486 kts | 158° |
| 2026-04-18 09:47 | 56.52125 | 1.84976 | 40859 ft | 487 kts | 158° |
| 2026-04-18 09:48 | 56.49047 | 1.87562 | 41046 ft | 486 kts | 158° |
| 2026-04-18 09:48 | 56.45980 | 1.90135 | 41072 ft | 485 kts | 158° |
| 2026-04-18 09:48 | 56.39868 | 1.95247 | 41074 ft | 484 kts | 158° |
| 2026-04-18 09:49 | 56.33743 | 2.00349 | 41076 ft | 485 kts | 158° |
| 2026-04-18 09:49 | 56.27621 | 2.05432 | 41070 ft | 485 kts | 158° |
| 2026-04-18 09:50 | 56.21485 | 2.10509 | 41076 ft | 485 kts | 158° |
| 2026-04-18 09:50 | 56.15344 | 2.15573 | 41075 ft | 486 kts | 158° |
| 2026-04-18 09:51 | 56.09201 | 2.20619 | 41087 ft | 485 kts | 158° |
| 2026-04-18 09:51 | 56.03093 | 2.25620 | 41090 ft | 486 kts | 158° |
| 2026-04-18 09:52 | 55.96941 | 2.30639 | 41096 ft | 486 kts | 158° |
| 2026-04-18 09:52 | 55.90786 | 2.35643 | 41099 ft | 486 kts | 158° |
| 2026-04-18 09:53 | 55.84633 | 2.40698 | 41102 ft | 487 kts | 158° |
| 2026-04-18 09:53 | 55.78516 | 2.45883 | 41107 ft | 487 kts | 158° |
| 2026-04-18 09:54 | 55.72392 | 2.51044 | 41107 ft | 487 kts | 158° |
| 2026-04-18 09:54 | 55.66288 | 2.56150 | 41113 ft | 487 kts | 158° |
| 2026-04-18 09:55 | 55.60153 | 2.61259 | 41111 ft | 487 kts | 158° |
| 2026-04-18 09:55 | 55.54014 | 2.66355 | 41116 ft | 487 kts | 158° |
| 2026-04-18 09:56 | 55.47874 | 2.71432 | 41121 ft | 487 kts | 158° |
| 2026-04-18 09:56 | 55.41732 | 2.76495 | 41124 ft | 487 kts | 158° |
| 2026-04-18 09:57 | 55.35589 | 2.81541 | 41125 ft | 487 kts | 158° |
| 2026-04-18 09:57 | 55.29479 | 2.86543 | 41122 ft | 487 kts | 158° |
| 2026-04-18 09:58 | 55.23328 | 2.91561 | 41136 ft | 487 kts | 159° |
| 2026-04-18 09:58 | 55.17169 | 2.96568 | 41114 ft | 488 kts | 159° |
| 2026-04-18 09:59 | 55.11009 | 3.01559 | 41110 ft | 488 kts | 159° |
| 2026-04-18 10:00 | 55.01798 | 3.08992 | 41127 ft | 487 kts | 159° |
| 2026-04-18 10:00 | 54.95622 | 3.13951 | 41136 ft | 488 kts | 159° |
| 2026-04-18 10:01 | 54.89450 | 3.18894 | 41136 ft | 488 kts | 159° |
| 2026-04-18 10:01 | 54.83323 | 3.23783 | 41141 ft | 488 kts | 159° |
| 2026-04-18 10:02 | 54.77144 | 3.28697 | 41138 ft | 488 kts | 159° |
| 2026-04-18 10:02 | 54.70975 | 3.33587 | 41140 ft | 488 kts | 159° |
| 2026-04-18 10:03 | 54.64798 | 3.38466 | 41136 ft | 488 kts | 159° |
| 2026-04-18 10:03 | 54.58624 | 3.43327 | 41147 ft | 488 kts | 159° |
| 2026-04-18 10:04 | 54.52442 | 3.48178 | 41152 ft | 488 kts | 159° |
| 2026-04-18 10:04 | 54.46259 | 3.53013 | 41152 ft | 488 kts | 159° |
| 2026-04-18 10:05 | 54.40110 | 3.57806 | 41150 ft | 488 kts | 159° |
| 2026-04-18 10:05 | 54.33817 | 3.62078 | 41155 ft | 484 kts | 167° |
| 2026-04-18 10:06 | 54.27250 | 3.64255 | 41153 ft | 478 kts | 178° |
| 2026-04-18 10:06 | 54.20645 | 3.64277 | 41159 ft | 473 kts | 187° |
| 2026-04-18 10:07 | 54.14068 | 3.63542 | 41158 ft | 474 kts | 187° |
| 2026-04-18 10:07 | 54.07487 | 3.62867 | 41168 ft | 474 kts | 186° |
| 2026-04-18 10:08 | 54.00900 | 3.62201 | 41165 ft | 474 kts | 187° |
| 2026-04-18 10:08 | 53.94317 | 3.61535 | 41171 ft | 474 kts | 187° |
| 2026-04-18 10:09 | 53.87717 | 3.60869 | 41164 ft | 474 kts | 187° |
| 2026-04-18 10:09 | 53.81130 | 3.60207 | 41174 ft | 474 kts | 187° |
| 2026-04-18 10:10 | 53.74590 | 3.59551 | 41169 ft | 474 kts | 187° |
| 2026-04-18 10:10 | 53.68010 | 3.58893 | 41180 ft | 473 kts | 187° |
| 2026-04-18 10:11 | 53.61429 | 3.58237 | 41173 ft | 473 kts | 187° |
| 2026-04-18 10:11 | 53.54853 | 3.57584 | 41173 ft | 473 kts | 187° |
| 2026-04-18 10:12 | 53.48274 | 3.56933 | 41171 ft | 473 kts | 187° |
| 2026-04-18 10:12 | 53.41688 | 3.56529 | 41175 ft | 476 kts | 182° |
| 2026-04-18 10:13 | 53.35062 | 3.57528 | 41173 ft | 480 kts | 174° |
| 2026-04-18 10:13 | 53.28472 | 3.59535 | 41176 ft | 481 kts | 174° |
| 2026-04-18 10:14 | 53.21881 | 3.61497 | 41175 ft | 481 kts | 174° |
| 2026-04-18 10:14 | 53.15288 | 3.63414 | 41190 ft | 481 kts | 174° |
| 2026-04-18 10:15 | 53.08690 | 3.65321 | 41193 ft | 481 kts | 174° |
| 2026-04-18 10:15 | 53.02172 | 3.67563 | 41198 ft | 485 kts | 167° |
| 2026-04-18 10:16 | 52.95948 | 3.72083 | 41185 ft | 494 kts | 153° |
| 2026-04-18 10:16 | 52.90509 | 3.78824 | 41195 ft | 501 kts | 141° |
| 2026-04-18 10:17 | 52.85292 | 3.86663 | 41194 ft | 501 kts | 142° |
| 2026-04-18 10:17 | 52.80061 | 3.94393 | 41201 ft | 501 kts | 142° |
| 2026-04-18 10:18 | 52.74843 | 4.02060 | 41193 ft | 501 kts | 142° |
| 2026-04-18 10:18 | 52.69626 | 4.09701 | 41202 ft | 502 kts | 142° |
| 2026-04-18 10:19 | 52.64527 | 4.17587 | 41195 ft | 505 kts | 136° |
| 2026-04-18 10:19 | 52.60195 | 4.26651 | 41205 ft | 510 kts | 126° |
| 2026-04-18 10:20 | 52.56746 | 4.36825 | 41206 ft | 513 kts | 119° |
| 2026-04-18 10:20 | 52.53544 | 4.47405 | 41212 ft | 513 kts | 119° |
| 2026-04-18 10:21 | 52.50322 | 4.57853 | 41209 ft | 513 kts | 120° |
| 2026-04-18 10:21 | 52.47076 | 4.68293 | 41207 ft | 513 kts | 120° |
| 2026-04-18 10:22 | 52.43819 | 4.78722 | 41210 ft | 513 kts | 120° |
| 2026-04-18 10:22 | 52.40581 | 4.89048 | 41211 ft | 513 kts | 120° |
| 2026-04-18 10:23 | 52.37313 | 4.99426 | 41203 ft | 513 kts | 120° |
| 2026-04-18 10:23 | 52.34035 | 5.09790 | 41199 ft | 513 kts | 120° |
| 2026-04-18 10:24 | 52.30745 | 5.20151 | 41184 ft | 513 kts | 120° |
| 2026-04-18 10:24 | 52.27986 | 5.28803 | 41184 ft | 513 kts | 120° |
| 2026-04-18 10:25 | 52.24711 | 5.39037 | 41187 ft | 513 kts | 120° |
| 2026-04-18 10:25 | 52.21391 | 5.49367 | 41183 ft | 513 kts | 120° |
| 2026-04-18 10:26 | 52.18069 | 5.59659 | 41181 ft | 513 kts | 120° |
| 2026-04-18 10:26 | 52.14759 | 5.69872 | 41188 ft | 513 kts | 120° |
| 2026-04-18 10:27 | 52.11413 | 5.80154 | 41184 ft | 512 kts | 120° |
| 2026-04-18 10:27 | 52.08069 | 5.90387 | 41186 ft | 512 kts | 120° |
| 2026-04-18 10:28 | 52.04719 | 6.00595 | 41185 ft | 512 kts | 120° |
| 2026-04-18 10:28 | 52.01356 | 6.10799 | 41188 ft | 512 kts | 120° |
| 2026-04-18 10:29 | 51.97695 | 6.20690 | 41183 ft | 509 kts | 128° |
| 2026-04-18 10:29 | 51.93128 | 6.29382 | 41185 ft | 505 kts | 138° |
| 2026-04-18 10:30 | 51.87814 | 6.36731 | 41190 ft | 502 kts | 144° |
| 2026-04-18 10:30 | 51.82399 | 6.43776 | 41195 ft | 502 kts | 144° |
| 2026-04-18 10:31 | 51.76958 | 6.50861 | 41195 ft | 502 kts | 144° |
| 2026-04-18 10:31 | 51.71553 | 6.57869 | 41197 ft | 502 kts | 144° |
| 2026-04-18 10:32 | 51.66116 | 6.64894 | 40986 ft | 497 kts | 144° |
| 2026-04-18 10:32 | 51.63433 | 6.68355 | 40624 ft | 494 kts | 144° |
| 2026-04-18 10:32 | 51.60747 | 6.71810 | 39918 ft | 496 kts | 144° |
| 2026-04-18 10:32 | 51.58043 | 6.75281 | 39101 ft | 500 kts | 145° |
| 2026-04-18 10:33 | 51.55319 | 6.78773 | 38346 ft | 500 kts | 145° |
| 2026-04-18 10:33 | 51.52643 | 6.82200 | 37600 ft | 498 kts | 145° |
| 2026-04-18 10:33 | 51.49947 | 6.85648 | 36829 ft | 496 kts | 145° |
| 2026-04-18 10:33 | 51.47245 | 6.89097 | 36015 ft | 496 kts | 145° |
| 2026-04-18 10:34 | 51.44547 | 6.92535 | 35190 ft | 496 kts | 145° |
| 2026-04-18 10:34 | 51.41849 | 6.95969 | 34518 ft | 493 kts | 145° |
| 2026-04-18 10:34 | 51.39172 | 6.99372 | 33903 ft | 488 kts | 145° |
| 2026-04-18 10:34 | 51.36529 | 7.02726 | 33292 ft | 482 kts | 145° |
| 2026-04-18 10:35 | 51.33982 | 7.05954 | 32698 ft | 477 kts | 145° |
| 2026-04-18 10:35 | 51.31399 | 7.09221 | 32113 ft | 472 kts | 145° |
| 2026-04-18 10:35 | 51.28826 | 7.12469 | 31542 ft | 467 kts | 146° |
| 2026-04-18 10:35 | 51.26183 | 7.15411 | 30945 ft | 459 kts | 152° |
| 2026-04-18 10:36 | 51.23377 | 7.17828 | 30076 ft | 458 kts | 158° |
| 2026-04-18 10:36 | 51.20515 | 7.20058 | 29356 ft | 456 kts | 157° |
| 2026-04-18 10:36 | 51.17767 | 7.22218 | 28967 ft | 448 kts | 157° |
| 2026-04-18 10:36 | 51.14914 | 7.24470 | 28352 ft | 444 kts | 157° |
| 2026-04-18 10:37 | 51.12152 | 7.26651 | 27753 ft | 440 kts | 157° |
| 2026-04-18 10:37 | 51.09436 | 7.28825 | 27143 ft | 435 kts | 156° |
| 2026-04-18 10:37 | 51.06774 | 7.31023 | 26555 ft | 431 kts | 155° |
| 2026-04-18 10:37 | 51.04124 | 7.33224 | 25981 ft | 427 kts | 155° |
| 2026-04-18 10:38 | 51.01500 | 7.35401 | 25575 ft | 427 kts | 155° |
| 2026-04-18 10:38 | 50.98867 | 7.37577 | 25132 ft | 427 kts | 155° |
| 2026-04-18 10:38 | 50.96231 | 7.39750 | 24691 ft | 425 kts | 155° |
| 2026-04-18 10:38 | 50.93652 | 7.41871 | 24249 ft | 421 kts | 155° |
| 2026-04-18 10:39 | 50.91066 | 7.43993 | 23799 ft | 418 kts | 155° |
| 2026-04-18 10:39 | 50.88453 | 7.46133 | 23325 ft | 415 kts | 155° |
| 2026-04-18 10:39 | 50.86092 | 7.48065 | 22867 ft | 413 kts | 155° |
| 2026-04-18 10:39 | 50.83532 | 7.50154 | 21956 ft | 417 kts | 155° |
| 2026-04-18 10:40 | 50.80946 | 7.52262 | 21224 ft | 415 kts | 155° |
| 2026-04-18 10:40 | 50.78408 | 7.54332 | 20582 ft | 410 kts | 155° |
| 2026-04-18 10:40 | 50.75881 | 7.56390 | 19865 ft | 407 kts | 155° |
| 2026-04-18 10:40 | 50.73367 | 7.58435 | 19161 ft | 404 kts | 155° |
| 2026-04-18 10:41 | 50.70873 | 7.60459 | 18429 ft | 400 kts | 155° |
| 2026-04-18 10:41 | 50.68429 | 7.62444 | 17779 ft | 390 kts | 155° |
| 2026-04-18 10:41 | 50.66057 | 7.64368 | 17354 ft | 379 kts | 155° |
| 2026-04-18 10:41 | 50.63712 | 7.66264 | 16967 ft | 379 kts | 155° |
| 2026-04-18 10:42 | 50.61369 | 7.68156 | 16475 ft | 376 kts | 155° |
| 2026-04-18 10:42 | 50.59051 | 7.70028 | 16002 ft | 371 kts | 155° |
| 2026-04-18 10:42 | 50.56776 | 7.71862 | 15607 ft | 369 kts | 155° |
| 2026-04-18 10:42 | 50.54489 | 7.73703 | 15186 ft | 366 kts | 155° |
| 2026-04-18 10:43 | 50.52223 | 7.75523 | 14773 ft | 365 kts | 155° |
| 2026-04-18 10:43 | 50.49976 | 7.77328 | 14354 ft | 362 kts | 155° |
| 2026-04-18 10:43 | 50.47733 | 7.79128 | 13929 ft | 360 kts | 155° |
| 2026-04-18 10:43 | 50.45514 | 7.80908 | 13497 ft | 357 kts | 155° |
| 2026-04-18 10:44 | 50.43359 | 7.82779 | 13094 ft | 357 kts | 148° |
| 2026-04-18 10:44 | 50.41384 | 7.85106 | 12779 ft | 355 kts | 142° |
| 2026-04-18 10:44 | 50.39485 | 7.87500 | 12436 ft | 353 kts | 143° |
| 2026-04-18 10:44 | 50.37568 | 7.89888 | 12091 ft | 351 kts | 143° |
| 2026-04-18 10:45 | 50.35658 | 7.92258 | 11815 ft | 348 kts | 143° |
| 2026-04-18 10:45 | 50.33805 | 7.94554 | 11619 ft | 333 kts | 143° |
| 2026-04-18 10:45 | 50.32045 | 7.96734 | 11447 ft | 313 kts | 143° |
| 2026-04-18 10:45 | 50.30377 | 7.98797 | 11088 ft | 301 kts | 143° |
| 2026-04-18 10:46 | 50.28730 | 8.00825 | 10482 ft | 300 kts | 143° |
| 2026-04-18 10:46 | 50.27113 | 8.02826 | 10268 ft | 293 kts | 141° |
| 2026-04-18 10:46 | 50.25661 | 8.05083 | 10069 ft | 296 kts | 130° |
| 2026-04-18 10:46 | 50.24440 | 8.07633 | 9986 ft | 293 kts | 128° |
| 2026-04-18 10:47 | 50.23230 | 8.10126 | 9921 ft | 293 kts | 128° |
| 2026-04-18 10:47 | 50.21972 | 8.12680 | 9870 ft | 293 kts | 129° |
| 2026-04-18 10:47 | 50.20736 | 8.15181 | 9792 ft | 292 kts | 129° |
| 2026-04-18 10:47 | 50.19488 | 8.17703 | 9691 ft | 292 kts | 129° |
| 2026-04-18 10:48 | 50.18246 | 8.20211 | 9645 ft | 292 kts | 129° |
| 2026-04-18 10:48 | 50.17005 | 8.22715 | 9557 ft | 291 kts | 129° |
| 2026-04-18 10:48 | 50.15788 | 8.25174 | 9483 ft | 290 kts | 129° |
| 2026-04-18 10:48 | 50.14562 | 8.27648 | 9398 ft | 290 kts | 129° |
| 2026-04-18 10:49 | 50.13311 | 8.30170 | 9301 ft | 289 kts | 129° |
| 2026-04-18 10:49 | 50.12096 | 8.32618 | 9235 ft | 290 kts | 129° |
| 2026-04-18 10:49 | 50.10897 | 8.35070 | 9144 ft | 289 kts | 124° |
| 2026-04-18 10:49 | 50.10166 | 8.37995 | 9081 ft | 290 kts | 98° |
| 2026-04-18 10:50 | 50.10283 | 8.40968 | 8993 ft | 290 kts | 75° |
| 2026-04-18 10:50 | 50.10964 | 8.43911 | 8918 ft | 290 kts | 68° |
| 2026-04-18 10:50 | 50.11756 | 8.46818 | 8841 ft | 290 kts | 67° |
| 2026-04-18 10:50 | 50.12536 | 8.49718 | 8753 ft | 289 kts | 68° |
| 2026-04-18 10:51 | 50.13275 | 8.52604 | 8667 ft | 289 kts | 69° |
| 2026-04-18 10:51 | 50.13990 | 8.55517 | 8589 ft | 288 kts | 69° |
| 2026-04-18 10:51 | 50.14693 | 8.58443 | 8524 ft | 288 kts | 70° |
| 2026-04-18 10:51 | 50.15390 | 8.61375 | 8431 ft | 287 kts | 70° |
| 2026-04-18 10:52 | 50.16079 | 8.64291 | 8344 ft | 287 kts | 70° |
| 2026-04-18 10:52 | 50.16775 | 8.67222 | 8265 ft | 287 kts | 70° |
| 2026-04-18 10:52 | 50.17468 | 8.70140 | 8194 ft | 287 kts | 70° |
| 2026-04-18 10:52 | 50.18145 | 8.72991 | 8111 ft | 287 kts | 70° |
| 2026-04-18 10:53 | 50.18834 | 8.75904 | 8033 ft | 286 kts | 70° |
| 2026-04-18 10:53 | 50.19522 | 8.78810 | 7945 ft | 285 kts | 70° |
| 2026-04-18 10:53 | 50.20210 | 8.81722 | 7864 ft | 285 kts | 70° |
| 2026-04-18 10:53 | 50.20894 | 8.84626 | 7778 ft | 285 kts | 70° |
| 2026-04-18 10:54 | 50.21577 | 8.87533 | 7696 ft | 284 kts | 70° |
| 2026-04-18 10:54 | 50.22264 | 8.90436 | 7617 ft | 285 kts | 70° |
| 2026-04-18 10:54 | 50.22938 | 8.93311 | 7524 ft | 285 kts | 70° |
| 2026-04-18 10:54 | 50.23616 | 8.96214 | 7465 ft | 284 kts | 70° |
| 2026-04-18 10:55 | 50.24290 | 8.99101 | 7380 ft | 283 kts | 70° |
| 2026-04-18 10:55 | 50.24967 | 9.01987 | 7298 ft | 282 kts | 70° |
| 2026-04-18 10:55 | 50.25635 | 9.04869 | 7216 ft | 282 kts | 71° |
| 2026-04-18 10:55 | 50.26304 | 9.07752 | 7138 ft | 282 kts | 70° |
| 2026-04-18 10:56 | 50.26973 | 9.10617 | 7058 ft | 280 kts | 71° |
| 2026-04-18 10:56 | 50.27637 | 9.13476 | 6927 ft | 280 kts | 71° |
| 2026-04-18 10:56 | 50.28304 | 9.16353 | 6647 ft | 280 kts | 71° |
| 2026-04-18 10:56 | 50.28958 | 9.19183 | 6564 ft | 275 kts | 71° |
| 2026-04-18 10:57 | 50.29610 | 9.22005 | 6521 ft | 277 kts | 71° |
| 2026-04-18 10:57 | 50.30270 | 9.24871 | 6442 ft | 282 kts | 71° |
| 2026-04-18 10:57 | 50.30931 | 9.27744 | 6406 ft | 280 kts | 71° |
| 2026-04-18 10:57 | 50.31593 | 9.30621 | 6332 ft | 280 kts | 72° |
| 2026-04-18 10:58 | 50.31858 | 9.33612 | 6253 ft | 279 kts | 96° |
| 2026-04-18 10:58 | 50.31265 | 9.36448 | 6167 ft | 275 kts | 123° |
| 2026-04-18 10:58 | 50.29942 | 9.38535 | 6084 ft | 271 kts | 150° |
| 2026-04-18 10:58 | 50.28187 | 9.39558 | 6014 ft | 270 kts | 172° |
| 2026-04-18 10:59 | 50.26341 | 9.39329 | 5959 ft | 268 kts | 199° |
| 2026-04-18 10:59 | 50.24793 | 9.37854 | 5893 ft | 265 kts | 224° |
| 2026-04-18 10:59 | 50.23787 | 9.35472 | 5820 ft | 265 kts | 249° |
| 2026-04-18 10:59 | 50.23206 | 9.32759 | 5732 ft | 266 kts | 250° |
| 2026-04-18 11:00 | 50.22595 | 9.30017 | 5662 ft | 265 kts | 250° |
| 2026-04-18 11:00 | 50.21974 | 9.27310 | 5601 ft | 265 kts | 249° |
| 2026-04-18 11:00 | 50.21344 | 9.24587 | 5517 ft | 266 kts | 249° |
| 2026-04-18 11:00 | 50.20713 | 9.21868 | 5442 ft | 266 kts | 249° |
| 2026-04-18 11:01 | 50.20084 | 9.19166 | 5381 ft | 264 kts | 249° |
| 2026-04-18 11:01 | 50.19456 | 9.16475 | 5297 ft | 264 kts | 249° |
| 2026-04-18 11:01 | 50.18841 | 9.13774 | 5201 ft | 265 kts | 250° |
| 2026-04-18 11:02 | 50.17679 | 9.08326 | 4991 ft | 263 kts | 250° |
| 2026-04-18 11:02 | 50.17062 | 9.05680 | 4970 ft | 261 kts | 249° |
| 2026-04-18 11:02 | 50.16429 | 9.03030 | 4973 ft | 262 kts | 249° |
| 2026-04-18 11:02 | 50.15795 | 9.00365 | 4979 ft | 257 kts | 249° |
| 2026-04-18 11:03 | 50.15189 | 8.97826 | 4978 ft | 243 kts | 249° |
| 2026-04-18 11:03 | 50.14618 | 8.95428 | 4977 ft | 229 kts | 249° |
| 2026-04-18 11:03 | 50.14079 | 8.93153 | 4972 ft | 219 kts | 249° |
| 2026-04-18 11:03 | 50.13562 | 8.90977 | 4977 ft | 209 kts | 249° |
| 2026-04-18 11:04 | 50.13067 | 8.88910 | 4988 ft | 200 kts | 249° |
| 2026-04-18 11:04 | 50.12582 | 8.86878 | 4963 ft | 198 kts | 248° |
| 2026-04-18 11:04 | 50.11925 | 8.84994 | 4838 ft | 205 kts | 232° |
| 2026-04-18 11:04 | 50.10944 | 8.83321 | 4535 ft | 214 kts | 222° |
| 2026-04-18 11:05 | 50.09816 | 8.81770 | 4108 ft | 221 kts | 222° |
| 2026-04-18 11:05 | 50.08796 | 8.79896 | 3569 ft | 233 kts | 238° |
| 2026-04-18 11:05 | 50.08164 | 8.77547 | 3007 ft | 237 kts | 256° |
| 2026-04-18 11:05 | 50.07934 | 8.75020 | 2527 ft | 232 kts | 257° |
| 2026-04-18 11:06 | 50.07405 | 8.72713 | 2219 ft | 220 kts | 243° |
| 2026-04-18 11:06 | 50.06864 | 8.70600 | 1962 ft | 198 kts | 252° |
| 2026-04-18 11:06 | 50.06428 | 8.68769 | 1725 ft | 163 kts | 246° |
| 2026-04-18 11:06 | 50.06055 | 8.67231 | 1492 ft | 144 kts | 250° |
| 2026-04-18 11:07 | 50.05722 | 8.65808 | 1311 ft | 138 kts | 248° |
| 2026-04-18 11:07 | 50.05383 | 8.64428 | 1145 ft | 136 kts | 250° |
| 2026-04-18 11:07 | 50.05059 | 8.63043 | 986 ft | 136 kts | 250° |
| 2026-04-18 11:07 | 50.04731 | 8.61659 | 814 ft | 137 kts | 250° |
| 2026-04-18 11:08 | 50.04396 | 8.60275 | 639 ft | 137 kts | 251° |
| 2026-04-18 11:08 | 50.04060 | 8.58891 | 462 ft | 137 kts | 250° |
| 2026-04-18 11:08 | 50.03761 | 8.57607 | 369 ft | 107 kts | 250° |
| 2026-04-18 11:08 | 50.03615 | 8.57004 | 362 ft | 71 kts | 249° |
| 2026-04-18 11:09 | 50.03486 | 8.56472 | 361 ft | 27 kts | 249° |
| 2026-04-18 11:09 | 50.03436 | 8.56214 | 362 ft | 23 kts | 267° |
| 2026-04-18 11:09 | 50.03444 | 8.55987 | 355 ft | 19 kts | 277° |
| 2026-04-18 11:09 | 50.03458 | 8.55847 | 351 ft | 20 kts | 279° |
| 2026-04-18 11:10 | 50.03467 | 8.55774 | 355 ft | 1 kts | 281° |
| 2026-04-18 11:10 | 50.03471 | 8.55755 | 356 ft | 4 kts | 301° |
| 2026-04-18 11:10 | 50.03502 | 8.55708 | 357 ft | 7 kts | 335° |
| 2026-04-18 11:10 | 50.03538 | 8.55714 | 357 ft | 6 kts | 36° |
| 2026-04-18 11:11 | 50.03567 | 8.55778 | 360 ft | 9 kts | 67° |
| 2026-04-18 11:11 | 50.03593 | 8.55890 | 363 ft | 13 kts | 71° |
| 2026-04-18 11:11 | 50.03627 | 8.56035 | 358 ft | 16 kts | 69° |
| 2026-04-18 11:11 | 50.03669 | 8.56206 | 364 ft | 18 kts | 70° |
| 2026-04-18 11:12 | 50.03715 | 8.56405 | 364 ft | 20 kts | 69° |
| 2026-04-18 11:12 | 50.03760 | 8.56590 | 363 ft | 17 kts | 70° |
| 2026-04-18 11:12 | 50.03795 | 8.56743 | 366 ft | 14 kts | 70° |
| 2026-04-18 11:12 | 50.03824 | 8.56867 | 363 ft | 11 kts | 69° |
| 2026-04-18 11:13 | 50.03852 | 8.56981 | 367 ft | 11 kts | 69° |
| 2026-04-18 11:13 | 50.03875 | 8.57072 | 366 ft | 8 kts | 69° |
| 2026-04-18 11:13 | 50.03892 | 8.57146 | 367 ft | 7 kts | 70° |
| 2026-04-18 11:13 | 50.03910 | 8.57222 | 371 ft | 9 kts | 70° |
| 2026-04-18 11:14 | 50.03936 | 8.57332 | 373 ft | 13 kts | 70° |
| 2026-04-18 11:14 | 50.03971 | 8.57482 | 374 ft | 17 kts | 70° |
| 2026-04-18 11:14 | 50.04017 | 8.57669 | 372 ft | 20 kts | 69° |
| 2026-04-18 11:14 | 50.04069 | 8.57888 | 374 ft | 23 kts | 70° |
| 2026-04-18 11:15 | 50.04117 | 8.58087 | 376 ft | 12 kts | 59° |
| 2026-04-18 11:15 | 50.04190 | 8.58171 | 374 ft | 13 kts | 26° |
| 2026-04-18 11:15 | 50.04252 | 8.58210 | 376 ft | 7 kts | 12° |
| 2026-04-18 11:15 | 50.04302 | 8.58196 | 375 ft | 10 kts | 336° |
| 2026-04-18 11:16 | 50.04378 | 8.58151 | 374 ft | 14 kts | 339° |
| 2026-04-18 11:16 | 50.04490 | 8.58085 | 373 ft | 20 kts | 340° |
| 2026-04-18 11:16 | 50.04615 | 8.58013 | 368 ft | 16 kts | 340° |
| 2026-04-18 11:16 | 50.04692 | 8.57965 | 369 ft | 6 kts | 309° |
| 2026-04-18 11:17 | 50.04701 | 8.57877 | 363 ft | 11 kts | 257° |
| 2026-04-18 11:17 | 50.04669 | 8.57738 | 369 ft | 17 kts | 249° |
| 2026-04-18 11:17 | 50.04621 | 8.57549 | 368 ft | 18 kts | 249° |
| 2026-04-18 11:17 | 50.04597 | 8.57445 | 369 ft | 1 kts | 251° |
| 2026-04-18 11:18 | 50.04594 | 8.57415 | 366 ft | 4 kts | 277° |
| 2026-04-18 11:18 | 50.04606 | 8.57369 | 368 ft | 7 kts | 300° |
| 2026-04-18 11:18 | 50.04629 | 8.57308 | 365 ft | 4 kts | 300° |
| 2026-04-18 11:18 | 50.04639 | 8.57281 | 370 ft | 1 kts | 299° |
| 2026-04-18 11:19 | 50.04644 | 8.57268 | 368 ft | 0 kts | 299° |